Time;durP1;ratioP1;P1;durP2;ratioP2;P2;SDS_P1;SDS_P2;PMS_P1;PMS_P2;Temp;Humidity;BMP_temperature;BMP_pressure;BME280_temperature;BME280_humidity;BME280_pressure;Samples;Min_cycle;Max_cycle;Signal;HPM_P1;HPM_P2
2022/07/30 00:01:20;;;;;;;11.00;9.13;;;16.50;99.90;;;;;;5081211;28;20789;-61
2022/07/30 00:03:47;;;;;;;8.80;8.00;;;16.60;99.90;;;;;;5090463;28;20439;-61
2022/07/30 00:06:14;;;;;;;8.30;7.60;;;16.60;99.90;;;;;;5086850;28;20446;-61
2022/07/30 00:08:41;;;;;;;8.97;8.07;;;16.70;99.90;;;;;;5082723;28;20565;-60
2022/07/30 00:11:10;;;;;;;8.10;7.40;;;16.70;99.90;;;;;;5076949;28;20441;-59
2022/07/30 00:13:38;;;;;;;8.30;7.43;;;16.80;99.90;;;;;;5089063;28;20478;-60
2022/07/30 00:16:07;;;;;;;6.70;6.00;;;16.80;99.90;;;;;;5086669;28;20524;-60
2022/07/30 00:18:34;;;;;;;8.07;6.60;;;16.80;99.90;;;;;;5082750;28;20446;-60
2022/07/30 00:21:01;;;;;;;7.13;6.50;;;16.90;99.90;;;;;;5093247;28;20541;-60
2022/07/30 00:23:28;;;;;;;7.53;6.83;;;16.90;99.90;;;;;;5078830;28;20545;-60
2022/07/30 00:25:56;;;;;;;8.87;7.70;;;16.90;99.90;;;;;;5093473;28;20536;-60
2022/07/30 00:28:23;;;;;;;9.80;6.73;;;16.90;99.90;;;;;;5086579;28;20939;-60
2022/07/30 00:30:50;;;;;;;7.10;6.40;;;17.00;99.90;;;;;;5090505;28;20525;-59
2022/07/30 00:33:18;;;;;;;8.30;7.50;;;16.90;99.90;;;;;;5081929;28;20454;-59
2022/07/30 00:35:46;;;;;;;8.60;7.80;;;16.90;99.90;;;;;;5084906;28;20475;-59
2022/07/30 00:38:13;;;;;;;8.07;7.33;;;16.90;99.90;;;;;;5082791;28;20517;-60
2022/07/30 00:40:41;;;;;;;8.90;7.50;;;16.90;99.90;;;;;;5092908;28;20462;-59
2022/07/30 00:43:08;;;;;;;7.30;6.60;;;16.90;99.90;;;;;;5082243;28;20452;-60
2022/07/30 00:45:36;;;;;;;8.60;7.77;;;16.90;99.90;;;;;;5095538;28;20503;-59
2022/07/30 00:48:03;;;;;;;10.90;7.50;;;16.90;99.90;;;;;;5092807;28;20529;-59
2022/07/30 00:50:32;;;;;;;7.93;7.23;;;16.90;99.90;;;;;;5084815;28;20468;-60
2022/07/30 00:53:00;;;;;;;7.43;6.70;;;16.90;99.90;;;;;;5090811;28;20525;-61
2022/07/30 00:55:27;;;;;;;8.07;7.23;;;16.90;99.90;;;;;;5083348;28;21065;-60
2022/07/30 00:57:54;;;;;;;8.40;7.67;;;16.90;99.90;;;;;;5082473;28;20442;-59
2022/07/30 01:00:22;;;;;;;7.77;6.97;;;17.00;99.90;;;;;;5095908;28;20545;-61
2022/07/30 01:02:49;;;;;;;8.40;7.60;;;17.00;99.90;;;;;;5079770;28;20529;-60
2022/07/30 01:05:16;;;;;;;8.50;7.57;;;17.00;99.90;;;;;;5094158;28;21009;-60
2022/07/30 01:07:45;;;;;;;9.17;8.27;;;17.00;99.90;;;;;;5078701;28;20443;-60
2022/07/30 01:10:15;;;;;;;11.50;7.77;;;17.00;99.90;;;;;;5096045;28;20478;-59
2022/07/30 01:12:43;;;;;;;7.70;6.90;;;17.00;99.90;;;;;;5094594;28;20941;-61
2022/07/30 01:15:11;;;;;;;7.63;6.93;;;17.00;99.90;;;;;;5090898;28;20554;-60
2022/07/30 01:17:39;;;;;;;7.77;7.10;;;17.10;99.90;;;;;;5089165;28;20493;-60
2022/07/30 01:20:11;;;;;;;7.07;6.47;;;17.10;99.90;;;;;;5086331;28;20544;-60
2022/07/30 01:22:50;;;;;;;11.40;7.07;;;17.10;99.90;;;;;;5094242;28;20866;-61
2022/07/30 01:25:25;;;;;;;8.97;6.00;;;17.00;99.90;;;;;;5060704;28;20795;-60
2022/07/30 01:27:57;;;;;;;7.50;6.80;;;17.10;99.90;;;;;;5083942;28;20434;-59
2022/07/30 01:30:28;;;;;;;7.37;6.50;;;17.00;99.90;;;;;;5094369;28;20520;-60
2022/07/30 01:32:57;;;;;;;7.43;6.63;;;17.00;99.90;;;;;;5091106;28;20443;-60
2022/07/30 01:35:27;;;;;;;8.33;6.30;;;17.00;99.90;;;;;;5086512;28;20560;-60
2022/07/30 01:37:57;;;;;;;7.63;6.90;;;17.10;99.90;;;;;;5075425;28;20530;-60
2022/07/30 01:40:27;;;;;;;6.83;6.20;;;17.10;99.90;;;;;;5095244;28;20474;-60
2022/07/30 01:42:57;;;;;;;6.67;6.07;;;17.10;99.90;;;;;;5088830;28;20452;-60
2022/07/30 01:45:26;;;;;;;6.80;6.20;;;17.10;99.90;;;;;;5079781;28;20848;-60
2022/07/30 01:47:55;;;;;;;6.53;6.00;;;17.10;99.90;;;;;;5080385;28;21000;-60
2022/07/30 01:50:23;;;;;;;6.70;6.20;;;17.10;99.90;;;;;;5093606;28;21064;-62
2022/07/30 01:52:52;;;;;;;8.73;7.30;;;17.20;99.90;;;;;;5093061;28;20537;-60
2022/07/30 01:55:24;;;;;;;13.13;7.10;;;17.20;99.90;;;;;;5091972;28;20489;-60
2022/07/30 01:57:54;;;;;;;9.73;7.00;;;17.20;99.90;;;;;;5085031;28;20445;-61
2022/07/30 02:00:24;;;;;;;9.10;7.30;;;17.20;99.90;;;;;;5081467;28;20467;-61
2022/07/30 02:02:53;;;;;;;7.47;6.80;;;17.20;99.90;;;;;;5076940;28;20482;-62
2022/07/30 02:05:20;;;;;;;9.53;7.30;;;17.20;99.90;;;;;;5078559;28;20834;-61
2022/07/30 02:07:56;;;;;;;7.47;6.63;;;17.20;99.90;;;;;;5084252;28;20562;-61
2022/07/30 02:10:30;;;;;;;7.50;6.90;;;17.20;99.90;;;;;;5082983;28;20477;-61
2022/07/30 02:12:59;;;;;;;7.07;6.40;;;17.30;99.90;;;;;;5080838;28;20438;-61
2022/07/30 02:15:33;;;;;;;7.47;6.70;;;17.30;99.90;;;;;;5086997;28;20472;-61
2022/07/30 02:18:03;;;;;;;7.20;6.50;;;17.20;99.90;;;;;;5080324;28;20496;-62
2022/07/30 02:20:32;;;;;;;8.37;7.57;;;17.20;99.90;;;;;;5095168;28;20507;-61
2022/07/30 02:23:03;;;;;;;7.87;7.07;;;17.30;99.90;;;;;;5093195;28;20449;-61
2022/07/30 02:25:34;;;;;;;7.67;6.93;;;17.30;99.90;;;;;;5093196;28;20472;-61
2022/07/30 02:28:06;;;;;;;8.30;6.43;;;17.20;99.90;;;;;;5088317;28;20526;-61
2022/07/30 02:30:38;;;;;;;7.60;6.80;;;17.20;99.90;;;;;;5080258;28;20899;-61
2022/07/30 02:33:09;;;;;;;9.83;7.20;;;17.20;99.90;;;;;;5088087;28;20519;-60
2022/07/30 02:35:38;;;;;;;6.80;6.20;;;17.20;99.90;;;;;;5079985;28;20470;-61
2022/07/30 02:38:06;;;;;;;7.50;6.30;;;17.20;99.90;;;;;;5068427;28;20447;-61
2022/07/30 02:40:33;;;;;;;7.47;6.87;;;17.30;99.90;;;;;;5095036;28;20553;-61
2022/07/30 02:43:02;;;;;;;9.60;7.10;;;17.20;99.90;;;;;;5087947;28;20455;-61
2022/07/30 02:45:30;;;;;;;8.03;6.83;;;17.30;99.90;;;;;;5077463;28;20451;-62
2022/07/30 02:48:02;;;;;;;7.40;6.70;;;17.30;99.90;;;;;;5081626;28;20455;-62
2022/07/30 02:50:30;;;;;;;7.87;7.27;;;17.30;99.90;;;;;;5078543;28;21011;-60
2022/07/30 02:52:59;;;;;;;8.07;7.30;;;17.30;99.90;;;;;;5091132;28;20447;-61
2022/07/30 02:55:30;;;;;;;9.20;7.30;;;17.30;99.90;;;;;;5090399;28;20475;-61
2022/07/30 02:57:58;;;;;;;8.03;7.23;;;17.30;99.90;;;;;;5080619;28;20446;-61
2022/07/30 03:00:29;;;;;;;10.93;7.13;;;17.30;99.90;;;;;;5083428;28;20525;-61
2022/07/30 03:02:57;;;;;;;7.40;6.67;;;17.30;99.90;;;;;;5075302;28;20885;-61
2022/07/30 03:05:27;;;;;;;8.13;7.33;;;17.30;99.90;;;;;;5089450;28;20538;-61
2022/07/30 03:07:57;;;;;;;8.20;7.47;;;17.30;99.90;;;;;;5087122;28;20451;-61
2022/07/30 03:10:26;;;;;;;8.53;7.83;;;17.30;99.90;;;;;;5077340;28;20462;-61
2022/07/30 03:12:54;;;;;;;7.97;7.37;;;17.30;99.90;;;;;;5091531;28;20443;-60
2022/07/30 03:15:21;;;;;;;8.40;7.70;;;17.30;99.90;;;;;;5076077;28;20478;-62
2022/07/30 03:17:52;;;;;;;8.23;7.43;;;17.30;99.90;;;;;;5091838;28;20442;-61
2022/07/30 03:20:23;;;;;;;10.23;7.50;;;17.30;99.90;;;;;;5084155;28;20518;-62
2022/07/30 03:22:54;;;;;;;9.03;8.13;;;17.30;99.90;;;;;;5074571;28;20967;-59
2022/07/30 03:25:27;;;;;;;9.20;8.20;;;17.30;99.90;;;;;;5079886;28;20451;-62
2022/07/30 03:27:58;;;;;;;11.13;8.10;;;17.30;99.90;;;;;;5082568;28;20530;-61
2022/07/30 03:30:26;;;;;;;10.40;9.40;;;17.30;99.90;;;;;;5075234;28;20472;-60
2022/07/30 03:32:55;;;;;;;9.97;9.07;;;17.20;99.90;;;;;;5080206;28;21029;-60
2022/07/30 03:35:25;;;;;;;10.67;9.67;;;17.20;99.90;;;;;;5086234;28;20502;-61
2022/07/30 03:37:55;;;;;;;10.37;9.37;;;17.10;99.90;;;;;;5079705;28;20989;-61
2022/07/30 03:40:23;;;;;;;8.83;8.13;;;17.10;99.90;;;;;;5091462;28;20463;-61
2022/07/30 03:42:51;;;;;;;9.00;8.30;;;17.10;99.90;;;;;;5077278;28;20985;-60
2022/07/30 03:45:20;;;;;;;10.20;9.23;;;17.10;99.90;;;;;;5073481;28;20923;-63
2022/07/30 03:47:47;;;;;;;11.60;8.97;;;17.00;99.90;;;;;;5086663;28;20872;-62
2022/07/30 03:50:15;;;;;;;9.70;8.80;;;17.00;99.90;;;;;;5075170;28;20491;-62
2022/07/30 03:52:43;;;;;;;9.43;8.53;;;17.00;99.90;;;;;;5082577;28;20526;-62
2022/07/30 03:55:12;;;;;;;10.27;9.23;;;17.00;99.90;;;;;;5053732;28;20471;-63
2022/07/30 03:57:40;;;;;;;8.63;7.83;;;17.00;99.90;;;;;;5083968;28;20449;-62
2022/07/30 04:00:12;;;;;;;13.50;8.70;;;17.00;99.90;;;;;;5093167;28;20892;-61
2022/07/30 04:02:43;;;;;;;8.87;8.00;;;16.90;99.90;;;;;;5088817;28;20466;-62
2022/07/30 04:05:11;;;;;;;10.43;9.30;;;16.90;99.90;;;;;;5073408;28;20457;-61
2022/07/30 04:10:03;;;;;;;11.30;9.53;;;16.80;99.90;;;;;;5128422;22;21102;-57
2022/07/30 04:12:30;;;;;;;9.43;8.53;;;16.70;99.90;;;;;;5090032;28;20434;-58
2022/07/30 04:14:57;;;;;;;9.60;8.77;;;16.70;99.90;;;;;;5090055;28;20450;-59
2022/07/30 04:17:29;;;;;;;9.07;8.30;;;16.70;99.90;;;;;;5090354;28;20533;-58
2022/07/30 04:20:01;;;;;;;10.40;9.40;;;16.60;99.90;;;;;;5087088;28;20551;-59
2022/07/30 04:22:32;;;;;;;10.43;9.43;;;16.70;99.90;;;;;;5069976;28;20808;-58
2022/07/30 04:25:03;;;;;;;10.60;9.60;;;16.70;99.90;;;;;;5069945;28;20432;-59
2022/07/30 04:27:31;;;;;;;10.10;9.20;;;16.70;99.90;;;;;;5069779;28;20432;-59
2022/07/30 04:29:59;;;;;;;9.60;8.80;;;16.70;99.90;;;;;;5069733;28;20489;-60
2022/07/30 04:32:26;;;;;;;9.20;8.30;;;16.70;99.90;;;;;;5070035;28;20444;-58
2022/07/30 04:34:55;;;;;;;9.73;8.93;;;16.80;99.90;;;;;;5069565;28;20534;-59
2022/07/30 04:37:24;;;;;;;9.40;8.43;;;16.80;99.90;;;;;;5069302;28;21070;-59
2022/07/30 04:39:53;;;;;;;9.47;8.53;;;16.80;99.90;;;;;;5069192;28;20450;-58
2022/07/30 04:42:22;;;;;;;9.20;8.30;;;16.80;99.90;;;;;;5069681;28;20452;-58
2022/07/30 04:44:49;;;;;;;10.00;9.00;;;16.90;99.90;;;;;;5069225;28;20538;-59
2022/07/30 04:47:17;;;;;;;10.30;9.27;;;16.90;99.90;;;;;;5068128;28;20562;-59
2022/07/30 04:49:45;;;;;;;8.70;7.93;;;16.90;99.90;;;;;;5068583;28;20485;-58
2022/07/30 04:52:13;;;;;;;11.63;8.97;;;16.90;99.90;;;;;;5069208;28;20534;-59
2022/07/30 04:54:44;;;;;;;9.20;8.30;;;16.90;99.90;;;;;;5065100;28;20447;-58
2022/07/30 04:57:14;;;;;;;9.87;8.97;;;16.90;99.90;;;;;;5069151;28;20808;-59
2022/07/30 04:59:42;;;;;;;10.30;9.30;;;16.90;99.90;;;;;;5069261;28;20534;-59
2022/07/30 05:02:11;;;;;;;9.90;8.90;;;16.90;99.90;;;;;;5068999;28;20539;-59
2022/07/30 05:04:40;;;;;;;9.03;8.20;;;16.90;99.90;;;;;;5069394;28;20811;-59
2022/07/30 05:07:08;;;;;;;9.90;8.90;;;16.80;99.90;;;;;;5069349;28;20888;-60
2022/07/30 05:09:36;;;;;;;11.30;9.90;;;16.90;99.90;;;;;;5069001;28;20570;-58
2022/07/30 05:12:04;;;;;;;9.93;9.03;;;16.90;99.90;;;;;;5069078;28;20939;-59
2022/07/30 05:14:31;;;;;;;10.70;9.70;;;16.80;99.90;;;;;;5069340;28;20443;-59
2022/07/30 05:17:00;;;;;;;11.90;10.60;;;16.80;99.90;;;;;;5068674;28;21011;-59
2022/07/30 05:19:27;;;;;;;12.37;10.57;;;16.70;99.90;;;;;;5066132;28;20479;-61
2022/07/30 05:21:55;;;;;;;11.73;10.73;;;16.70;99.90;;;;;;5056180;28;20551;-62
2022/07/30 05:24:22;;;;;;;11.80;10.70;;;16.70;99.90;;;;;;5056324;28;20543;-60
2022/07/30 05:26:49;;;;;;;12.60;11.30;;;16.60;99.90;;;;;;5041559;28;20441;-62
2022/07/30 05:29:16;;;;;;;12.40;11.23;;;16.60;99.90;;;;;;5036313;28;20574;-59
2022/07/30 05:31:44;;;;;;;12.50;11.40;;;16.60;99.90;;;;;;5036208;28;20502;-58
2022/07/30 05:34:12;;;;;;;12.43;11.13;;;16.60;99.90;;;;;;5053878;28;21042;-59
2022/07/30 05:36:39;;;;;;;12.30;10.83;;;16.50;99.90;;;;;;5055756;28;20448;-57
2022/07/30 05:39:07;;;;;;;12.70;11.50;;;16.50;99.90;;;;;;5056191;28;20869;-59
2022/07/30 05:41:34;;;;;;;12.67;11.33;;;16.50;99.90;;;;;;5055940;28;20831;-58
2022/07/30 05:44:01;;;;;;;12.93;11.73;;;16.50;99.90;;;;;;5055545;28;20479;-57
2022/07/30 05:46:30;;;;;;;13.60;12.40;;;16.60;99.90;;;;;;5054669;28;20448;-55
2022/07/30 05:48:57;;;;;;;12.33;11.23;;;16.50;99.90;;;;;;5054906;28;20482;-58
2022/07/30 05:51:26;;;;;;;12.47;11.37;;;16.60;99.90;;;;;;5054757;28;20461;-58
2022/07/30 05:53:53;;;;;;;11.80;10.60;;;16.60;99.90;;;;;;5055338;28;20452;-58
2022/07/30 05:56:20;;;;;;;12.20;10.97;;;16.60;99.90;;;;;;5054774;28;20447;-58
2022/07/30 05:58:47;;;;;;;11.70;10.70;;;16.60;99.90;;;;;;5054897;28;20455;-58
2022/07/30 06:01:14;;;;;;;11.47;10.30;;;16.60;99.90;;;;;;5054687;28;20546;-58
2022/07/30 06:03:42;;;;;;;9.93;9.03;;;16.70;99.90;;;;;;5037793;28;20445;-58
2022/07/30 06:06:09;;;;;;;10.73;9.73;;;16.70;99.90;;;;;;5039095;28;20523;-57
2022/07/30 06:08:38;;;;;;;10.27;9.20;;;16.70;99.90;;;;;;5052512;28;20530;-59
2022/07/30 06:11:07;;;;;;;11.60;9.70;;;16.70;99.90;;;;;;5053855;28;20480;-58
2022/07/30 06:13:35;;;;;;;10.70;9.60;;;16.70;99.90;;;;;;5050905;28;20503;-61
2022/07/30 06:16:02;;;;;;;10.90;9.90;;;16.70;99.90;;;;;;5055253;28;20445;-60
2022/07/30 06:18:29;;;;;;;10.77;9.77;;;16.80;99.90;;;;;;5053683;28;20535;-59
2022/07/30 06:20:56;;;;;;;10.60;9.37;;;16.90;99.90;;;;;;5055016;28;20491;-59
2022/07/30 06:23:24;;;;;;;9.70;8.80;;;17.00;99.90;;;;;;5055198;28;20888;-60
2022/07/30 06:25:53;;;;;;;10.47;9.60;;;17.10;99.90;;;;;;5054492;28;20456;-59
2022/07/30 06:28:20;;;;;;;9.37;8.47;;;17.20;99.90;;;;;;5053966;28;20448;-60
2022/07/30 06:30:47;;;;;;;9.63;8.73;;;17.30;99.90;;;;;;5053775;28;20522;-60
2022/07/30 06:33:15;;;;;;;8.83;8.03;;;17.40;99.90;;;;;;5053299;28;20448;-59
2022/07/30 06:35:43;;;;;;;8.93;8.17;;;17.50;99.90;;;;;;5053937;28;20527;-59
2022/07/30 06:38:10;;;;;;;8.00;7.40;;;17.60;99.90;;;;;;5054133;28;20947;-59
2022/07/30 06:40:37;;;;;;;8.80;7.70;;;17.80;99.90;;;;;;5053769;28;20467;-59
2022/07/30 06:43:06;;;;;;;8.77;7.00;;;18.00;99.90;;;;;;5054910;28;20498;-59
2022/07/30 06:45:33;;;;;;;7.53;6.80;;;18.10;99.90;;;;;;5054546;28;20560;-60
2022/07/30 06:48:00;;;;;;;8.07;7.35;;;18.20;99.90;;;;;;5046558;28;20540;-57
2022/07/30 06:50:28;;;;;;;9.10;8.07;;;18.40;99.90;;;;;;5053907;28;20812;-60
2022/07/30 06:52:55;;;;;;;8.10;6.70;;;18.50;99.90;;;;;;5053959;28;20538;-59
2022/07/30 06:55:22;;;;;;;7.40;6.80;;;18.60;99.90;;;;;;5033882;28;20480;-59
2022/07/30 06:57:50;;;;;;;7.03;6.37;;;18.70;99.90;;;;;;5034780;28;20476;-60
2022/07/30 07:00:19;;;;;;;7.03;6.33;;;18.80;99.90;;;;;;5033834;28;20985;-60
2022/07/30 07:02:46;;;;;;;7.20;6.57;;;18.90;99.90;;;;;;5034387;28;20452;-60
2022/07/30 07:05:14;;;;;;;7.40;6.70;;;19.10;99.90;;;;;;5043893;28;20449;-59
2022/07/30 07:07:42;;;;;;;6.83;6.20;;;19.30;99.90;;;;;;5053575;28;20960;-58
2022/07/30 07:10:10;;;;;;;6.87;6.27;;;19.40;99.90;;;;;;5053427;28;20487;-58
2022/07/30 07:12:37;;;;;;;6.77;6.17;;;19.60;99.90;;;;;;5053717;28;20523;-59
2022/07/30 07:15:06;;;;;;;6.30;5.83;;;19.70;99.90;;;;;;5053824;28;20881;-59
2022/07/30 07:17:34;;;;;;;6.60;6.00;;;19.90;99.90;;;;;;5053753;28;20531;-57
2022/07/30 07:20:02;;;;;;;6.87;6.00;;;20.00;99.90;;;;;;5054202;28;20461;-60
2022/07/30 07:22:29;;;;;;;6.43;5.83;;;20.20;99.90;;;;;;5053646;28;20548;-61
2022/07/30 07:24:56;;;;;;;8.07;5.53;;;20.30;99.90;;;;;;5056059;28;20544;-58
2022/07/30 07:27:24;;;;;;;5.60;5.10;;;20.40;99.90;;;;;;5053312;28;20456;-62
2022/07/30 07:29:51;;;;;;;7.30;5.53;;;20.40;99.90;;;;;;5053773;28;20519;-62
2022/07/30 07:32:19;;;;;;;6.20;4.77;;;20.30;99.90;;;;;;5033965;28;20446;-61
2022/07/30 07:34:47;;;;;;;6.63;5.53;;;20.30;99.90;;;;;;5033526;28;20482;-58
2022/07/30 07:37:15;;;;;;;5.50;5.10;;;20.30;99.90;;;;;;5057521;28;20477;-57
2022/07/30 07:39:42;;;;;;;7.13;5.40;;;20.30;99.90;;;;;;5052939;28;20946;-57
2022/07/30 07:42:10;;;;;;;4.40;4.10;;;20.30;99.90;;;;;;5042577;28;20459;-59
2022/07/30 07:44:37;;;;;;;7.70;5.47;;;20.30;99.90;;;;;;5042744;28;20468;-60
2022/07/30 07:47:05;;;;;;;5.07;4.27;;;20.30;99.90;;;;;;5053045;28;20926;-59
2022/07/30 07:49:32;;;;;;;5.40;4.93;;;20.40;99.90;;;;;;5053390;28;20572;-61
2022/07/30 07:52:00;;;;;;;5.03;4.63;;;20.50;99.90;;;;;;5053426;28;21103;-59
2022/07/30 07:54:28;;;;;;;4.63;4.20;;;20.50;99.90;;;;;;5053772;28;20488;-58
2022/07/30 07:56:56;;;;;;;5.20;4.80;;;20.60;99.90;;;;;;5054148;28;20445;-61
2022/07/30 07:59:26;;;;;;;4.50;4.10;;;20.70;99.90;;;;;;5053450;28;20486;-60
2022/07/30 08:01:53;;;;;;;5.17;4.70;;;20.90;99.90;;;;;;5053307;28;20509;-60
2022/07/30 08:04:20;;;;;;;4.10;3.63;;;21.10;99.90;;;;;;5053148;28;20457;-61
2022/07/30 08:06:47;;;;;;;4.63;4.20;;;21.20;99.90;;;;;;5053371;28;20450;-60
2022/07/30 08:09:17;;;;;;;6.50;5.50;;;21.30;99.90;;;;;;5053189;28;20516;-60
2022/07/30 08:11:44;;;;;;;4.97;4.17;;;21.30;99.90;;;;;;5053211;28;20487;-59
2022/07/30 08:14:12;;;;;;;4.77;4.37;;;21.30;99.90;;;;;;5054112;28;20447;-60
2022/07/30 08:16:39;;;;;;;5.27;4.77;;;21.40;99.90;;;;;;5054451;28;20485;-60
2022/07/30 08:19:06;;;;;;;4.50;4.10;;;21.50;99.90;;;;;;5060127;28;20557;-59
2022/07/30 08:21:34;;;;;;;4.30;3.90;;;21.60;99.90;;;;;;5053112;28;20554;-62
2022/07/30 08:24:01;;;;;;;4.70;4.30;;;21.70;99.90;;;;;;5052626;28;20827;-60
2022/07/30 08:26:30;;;;;;;3.97;3.67;;;21.90;99.90;;;;;;5052729;28;20462;-61
2022/07/30 08:28:57;;;;;;;4.20;3.90;;;22.00;99.10;;;;;;5053041;28;20497;-60
2022/07/30 08:31:24;;;;;;;3.70;3.40;;;22.00;98.40;;;;;;5054946;28;20548;-58
2022/07/30 08:33:52;;;;;;;4.20;3.80;;;22.00;97.30;;;;;;5054200;28;20944;-60
2022/07/30 08:36:19;;;;;;;3.87;3.57;;;21.90;96.70;;;;;;5058324;28;20535;-59
2022/07/30 08:38:46;;;;;;;3.70;3.40;;;22.00;96.50;;;;;;5059704;28;20981;-60
2022/07/30 08:41:17;;;;;;;3.97;3.57;;;22.20;96.20;;;;;;5060549;28;20460;-60
2022/07/30 08:43:47;;;;;;;4.63;2.97;;;22.40;95.70;;;;;;5059899;28;20900;-58
2022/07/30 08:46:17;;;;;;;3.63;3.33;;;22.50;94.70;;;;;;5059874;28;20479;-58
2022/07/30 08:48:45;;;;;;;3.00;2.80;;;22.70;93.80;;;;;;5054338;28;20539;-58
2022/07/30 08:51:13;;;;;;;4.13;3.73;;;22.90;93.00;;;;;;5052449;28;20537;-59
2022/07/30 08:53:42;;;;;;;4.13;3.53;;;23.10;92.30;;;;;;5052506;28;20491;-59
2022/07/30 08:56:09;;;;;;;4.67;3.07;;;23.30;91.90;;;;;;5057465;28;20539;-59
2022/07/30 08:58:36;;;;;;;3.40;2.93;;;23.70;90.70;;;;;;5056727;28;20805;-58
2022/07/30 09:01:06;;;;;;;3.60;2.80;;;23.80;89.40;;;;;;5056609;28;20549;-58
2022/07/30 09:03:34;;;;;;;2.60;2.40;;;23.80;87.50;;;;;;5056633;28;20497;-59
2022/07/30 09:06:02;;;;;;;3.53;3.20;;;23.80;85.50;;;;;;5056560;28;20536;-58
2022/07/30 09:08:30;;;;;;;3.63;2.87;;;23.80;83.80;;;;;;5056892;28;20540;-57
2022/07/30 09:10:57;;;;;;;2.93;2.60;;;23.80;82.80;;;;;;5056253;28;20843;-58
2022/07/30 09:13:26;;;;;;;2.73;2.50;;;23.70;81.80;;;;;;5055859;28;20448;-59
2022/07/30 09:15:54;;;;;;;3.80;2.70;;;23.60;81.40;;;;;;5055985;28;20448;-59
2022/07/30 09:18:30;;;;;;;2.33;2.13;;;23.60;81.50;;;;;;5055787;28;20534;-58
2022/07/30 09:21:00;;;;;;;3.50;2.60;;;23.60;80.00;;;;;;5055929;28;20566;-58
2022/07/30 09:23:27;;;;;;;2.60;2.40;;;23.70;79.10;;;;;;5056018;28;20501;-58
2022/07/30 09:25:55;;;;;;;3.40;3.07;;;23.80;76.90;;;;;;5055595;28;21027;-58
2022/07/30 09:28:29;;;;;;;3.50;2.90;;;24.10;75.40;;;;;;5055806;28;20455;-57
2022/07/30 09:30:57;;;;;;;4.20;2.80;;;24.10;74.10;;;;;;5055703;28;20484;-61
2022/07/30 09:33:34;;;;;;;3.50;2.80;;;24.20;73.70;;;;;;5055451;28;20536;-60
2022/07/30 09:36:02;;;;;;;4.43;3.43;;;24.30;73.20;;;;;;5055984;28;20865;-61
2022/07/30 09:38:30;;;;;;;3.27;2.97;;;24.40;72.50;;;;;;5055671;28;20500;-64
2022/07/30 09:40:58;;;;;;;4.27;2.93;;;24.60;71.70;;;;;;5055274;28;20537;-64
2022/07/30 09:43:26;;;;;;;5.37;3.37;;;24.80;71.40;;;;;;5055512;28;20470;-64
2022/07/30 09:45:59;;;;;;;4.27;3.87;;;25.00;70.60;;;;;;5055278;28;20482;-64
2022/07/30 09:48:28;;;;;;;4.70;3.40;;;25.00;70.20;;;;;;5055494;28;20420;-63
2022/07/30 09:50:56;;;;;;;4.13;3.73;;;25.00;70.50;;;;;;5055193;28;21079;-63
2022/07/30 09:53:24;;;;;;;3.40;3.10;;;25.00;70.20;;;;;;5055038;28;20641;-62
2022/07/30 09:55:51;;;;;;;4.87;3.67;;;25.10;69.60;;;;;;5055463;28;20551;-63
2022/07/30 09:58:18;;;;;;;3.30;2.93;;;25.10;68.40;;;;;;5055508;28;20444;-64
2022/07/30 10:00:46;;;;;;;5.30;3.60;;;25.00;67.10;;;;;;5055523;28;20521;-65
2022/07/30 10:03:18;;;;;;;3.80;3.50;;;24.90;66.60;;;;;;5058797;28;21009;-63
2022/07/30 10:05:52;;;;;;;4.97;3.70;;;24.80;66.50;;;;;;5055045;28;20479;-63
2022/07/30 10:08:37;;;;;;;3.40;2.90;;;24.80;66.20;;;;;;5055351;28;20994;-63
2022/07/30 10:11:05;;;;;;;3.33;3.03;;;24.80;66.20;;;;;;5088444;22;20584;-62
2022/07/30 10:13:33;;;;;;;4.70;3.63;;;24.90;66.00;;;;;;5054991;28;20446;-61
2022/07/30 10:16:01;;;;;;;4.00;3.70;;;25.10;65.10;;;;;;5054542;28;20449;-62
2022/07/30 10:18:29;;;;;;;5.83;3.80;;;25.20;64.90;;;;;;5054469;28;20548;-60
2022/07/30 10:20:56;;;;;;;4.57;4.10;;;25.30;64.90;;;;;;5055089;28;20548;-61
2022/07/30 10:23:28;;;;;;;4.93;3.90;;;25.40;64.90;;;;;;5055636;28;20528;-60
2022/07/30 10:25:56;;;;;;;4.23;3.03;;;25.60;64.50;;;;;;5055948;28;20428;-61
2022/07/30 10:28:24;;;;;;;4.73;3.60;;;25.70;64.00;;;;;;5055765;28;20508;-61
2022/07/30 10:30:52;;;;;;;3.20;2.90;;;25.70;64.70;;;;;;5055288;28;20487;-61
2022/07/30 10:33:22;;;;;;;3.70;3.40;;;25.60;64.50;;;;;;5054729;28;20527;-59
2022/07/30 10:35:49;;;;;;;3.87;3.57;;;25.60;64.90;;;;;;5055580;28;20443;-61
2022/07/30 10:38:21;;;;;;;3.70;3.40;;;25.60;64.20;;;;;;5055417;28;20457;-60
2022/07/30 10:40:54;;;;;;;3.70;3.40;;;25.50;63.70;;;;;;5054958;28;20974;-60
2022/07/30 10:44:02;;;;;;;5.13;3.73;;;25.40;63.80;;;;;;5055139;28;20442;-61
2022/07/30 10:46:44;;;;;;;3.70;3.23;;;25.50;62.40;;;;;;5054303;28;20540;-61
2022/07/30 10:49:13;;;;;;;3.60;3.30;;;25.50;61.60;;;;;;5055094;28;20950;-61
2022/07/30 10:51:45;;;;;;;4.53;3.80;;;25.60;61.00;;;;;;5054777;28;20512;-61
2022/07/30 10:54:40;;;;;;;4.87;3.77;;;25.70;60.30;;;;;;5054223;28;20455;-61
2022/07/30 10:57:11;;;;;;;4.30;3.90;;;25.70;59.60;;;;;;5054319;28;20546;-61
2022/07/30 11:00:11;;;;;;;3.77;3.37;;;25.70;59.40;;;;;;5054399;28;20429;-61
2022/07/30 11:02:39;;;;;;;4.07;3.67;;;25.70;58.90;;;;;;5054476;28;20559;-61
2022/07/30 11:05:27;;;;;;;5.37;3.20;;;25.70;58.60;;;;;;5054585;28;20452;-61
2022/07/30 11:07:55;;;;;;;4.00;3.20;;;25.70;57.90;;;;;;5054830;28;20543;-62
2022/07/30 11:10:37;;;;;;;5.73;3.50;;;25.70;57.20;;;;;;5054071;28;20479;-62
2022/07/30 11:13:06;;;;;;;5.53;3.47;;;25.70;57.00;;;;;;5054632;28;20517;-62
2022/07/30 11:15:52;;;;;;;3.30;3.00;;;25.90;55.90;;;;;;5054189;28;20546;-61
2022/07/30 11:18:20;;;;;;;3.87;3.03;;;26.00;55.10;;;;;;5053861;28;20442;-61
2022/07/30 11:21:19;;;;;;;3.83;3.33;;;26.10;54.80;;;;;;5053888;28;20519;-61
2022/07/30 11:23:47;;;;;;;3.87;3.03;;;26.10;54.80;;;;;;5053864;28;20521;-61
2022/07/30 11:26:48;;;;;;;4.90;3.60;;;26.30;54.60;;;;;;5053653;28;20536;-61
2022/07/30 11:29:37;;;;;;;3.27;3.00;;;26.40;54.10;;;;;;5056028;28;20776;-61
2022/07/30 11:32:24;;;;;;;4.60;3.00;;;26.50;53.80;;;;;;5058638;28;20514;-62
2022/07/30 11:34:52;;;;;;;3.00;2.63;;;26.60;53.30;;;;;;5060895;28;20932;-63
2022/07/30 11:37:19;;;;;;;3.10;2.80;;;26.60;53.00;;;;;;5058555;28;20521;-62
2022/07/30 11:40:11;;;;;;;3.10;2.80;;;26.80;52.50;;;;;;5061018;28;20802;-61
2022/07/30 11:42:40;;;;;;;3.20;3.00;;;26.90;52.00;;;;;;5054410;28;20508;-61
2022/07/30 11:45:29;;;;;;;3.63;3.17;;;26.90;51.90;;;;;;5056388;28;20558;-62
2022/07/30 11:48:00;;;;;;;2.97;2.70;;;26.60;52.30;;;;;;5055922;28;20445;-61
2022/07/30 11:50:30;;;;;;;3.80;3.13;;;26.50;52.90;;;;;;5055848;28;20967;-62
2022/07/30 11:52:59;;;;;;;4.60;2.90;;;26.40;52.90;;;;;;5055604;28;20522;-62
2022/07/30 11:55:31;;;;;;;5.33;3.30;;;26.30;53.10;;;;;;5055184;28;20447;-62
2022/07/30 11:58:00;;;;;;;5.40;3.43;;;26.30;53.10;;;;;;5054948;28;20501;-61
2022/07/30 12:00:35;;;;;;;3.33;3.03;;;26.70;52.70;;;;;;5055668;28;21004;-64
2022/07/30 12:03:10;;;;;;;3.40;3.10;;;27.50;51.50;;;;;;5036381;28;20432;-60
2022/07/30 12:05:38;;;;;;;3.17;2.87;;;28.30;50.20;;;;;;5042896;28;20539;-62
2022/07/30 12:08:05;;;;;;;3.47;3.17;;;28.80;48.10;;;;;;5054834;28;20527;-60
2022/07/30 12:10:34;;;;;;;3.77;3.47;;;29.40;46.90;;;;;;5059577;28;20503;-63
2022/07/30 12:13:10;;;;;;;2.90;2.63;;;29.80;45.80;;;;;;5056901;28;20787;-62
2022/07/30 12:15:41;;;;;;;4.93;3.47;;;30.00;45.50;;;;;;5053333;28;20534;-62
2022/07/30 12:18:11;;;;;;;4.33;3.93;;;29.60;46.00;;;;;;5053257;28;20465;-62
2022/07/30 12:20:38;;;;;;;4.17;3.87;;;29.50;46.30;;;;;;5053020;28;20449;-66
2022/07/30 12:23:11;;;;;;;3.83;3.43;;;29.60;46.30;;;;;;5053020;28;20445;-62
2022/07/30 12:25:39;;;;;;;3.80;3.40;;;29.60;46.10;;;;;;5053114;28;20534;-61
2022/07/30 12:28:07;;;;;;;3.10;2.90;;;29.00;46.70;;;;;;5052951;28;20539;-61
2022/07/30 12:30:37;;;;;;;3.43;3.13;;;28.20;47.90;;;;;;5054288;28;20550;-61
2022/07/30 12:33:06;;;;;;;4.20;3.80;;;27.70;48.90;;;;;;5056645;28;20534;-62
2022/07/30 12:35:44;;;;;;;3.97;3.50;;;27.30;49.80;;;;;;5057441;28;20526;-62
2022/07/30 12:38:11;;;;;;;3.77;3.37;;;27.00;50.20;;;;;;5058470;28;20856;-61
2022/07/30 12:40:52;;;;;;;4.20;3.10;;;26.90;50.20;;;;;;5057038;28;20453;-61
2022/07/30 12:43:46;;;;;;;4.20;3.80;;;26.90;50.20;;;;;;5057968;28;20525;-62
2022/07/30 12:46:15;;;;;;;3.20;2.90;;;26.90;50.10;;;;;;5056913;28;20496;-61
2022/07/30 12:48:59;;;;;;;4.30;2.97;;;27.00;49.90;;;;;;5056354;28;20449;-61
2022/07/30 12:51:31;;;;;;;5.87;3.70;;;26.90;49.40;;;;;;5056088;28;20865;-62
2022/07/30 12:53:59;;;;;;;3.40;3.10;;;26.70;49.50;;;;;;5056111;28;20965;-62
2022/07/30 12:56:28;;;;;;;5.53;3.80;;;26.50;49.70;;;;;;5056365;28;20869;-63
2022/07/30 12:58:56;;;;;;;4.30;3.57;;;26.40;50.00;;;;;;5056006;28;21047;-62
2022/07/30 13:01:43;;;;;;;5.03;3.67;;;26.20;50.10;;;;;;5056571;28;20472;-62